createdAt,value
2023-02-14T00:08:06.264Z,231.27
2023-02-14T00:18:11.726Z,229.50
2023-02-14T00:28:15.596Z,232.03
2023-02-14T00:38:20.801Z,234.90
2023-02-14T00:48:24.501Z,231.03
2023-02-14T00:58:29.819Z,221.53
2023-02-14T01:08:33.596Z,218.23
2023-02-14T01:18:42.056Z,230.97
2023-02-14T01:28:47.175Z,221.50
2023-02-14T01:38:56.873Z,223.50
2023-02-14T01:49:05.805Z,230.80
2023-02-14T01:59:18.216Z,226.17
2023-02-14T02:09:27.638Z,231.87
2023-02-14T02:20:32.652Z,222.50
2023-02-14T02:31:10.858Z,229.93
2023-02-14T02:41:27.849Z,236.33
2023-02-14T02:51:58.417Z,226.37
2023-02-14T03:02:11.388Z,225.53
2023-02-14T03:12:26.670Z,226.73
2023-02-14T03:22:45.765Z,225.77
2023-02-14T03:32:57.193Z,226.80
2023-02-14T03:43:09.044Z,229.03
2023-02-14T03:53:14.399Z,234.90
2023-02-14T04:03:21.876Z,233.03
2023-02-14T04:13:25.675Z,237.87
2023-02-14T04:23:30.983Z,237.80
2023-02-14T04:33:35.600Z,232.00
2023-02-14T04:43:40.920Z,238.27
2023-02-14T04:53:44.747Z,234.07
2023-02-14T05:03:49.993Z,233.67
2023-02-14T05:13:53.866Z,234.30
2023-02-14T05:23:59.155Z,234.50
2023-02-14T05:34:02.998Z,233.63
2023-02-14T05:44:08.257Z,232.27
2023-02-14T05:54:11.918Z,229.00
2023-02-14T06:04:17.243Z,232.67
2023-02-14T06:14:24.207Z,234.63
2023-02-14T06:24:29.569Z,233.83
2023-02-14T06:34:33.755Z,228.53
2023-02-14T06:44:38.960Z,230.93
2023-02-14T06:54:42.764Z,235.40
2023-02-14T07:04:48.043Z,233.30
2023-02-14T07:14:51.786Z,226.80
2023-02-14T07:24:56.788Z,228.50
2023-02-14T07:35:00.524Z,221.27
2023-02-14T07:45:20.724Z,221.27
2023-02-14T07:55:26.075Z,218.20
2023-02-14T08:05:31.682Z,212.07
2023-02-14T08:15:54.082Z,222.67
2023-02-14T08:25:59.684Z,218.60
2023-02-14T08:36:04.017Z,224.97
2023-02-14T08:46:09.193Z,221.83
2023-02-14T08:56:15.755Z,221.87
2023-02-14T09:06:20.965Z,226.13
2023-02-14T09:16:26.271Z,215.37
2023-02-14T09:26:31.577Z,226.03
2023-02-14T09:36:35.701Z,223.97
2023-02-14T09:46:48.295Z,220.97
2023-02-14T09:56:58.320Z,221.63
2023-02-14T10:07:15.709Z,213.67
2023-02-14T10:17:29.502Z,215.00
2023-02-14T10:27:39.687Z,216.27
2023-02-14T10:38:00.331Z,228.03
2023-02-14T10:48:16.807Z,224.67
2023-02-14T10:58:23.792Z,215.60
2023-02-14T11:08:34.418Z,210.93
2023-02-14T11:18:40.132Z,226.10
2023-02-14T11:28:55.925Z,223.73
2023-02-14T11:39:08.899Z,225.77
2023-02-14T11:49:28.845Z,226.13
2023-02-14T11:59:38.549Z,225.20
2023-02-14T12:09:44.432Z,209.63
2023-02-14T12:19:55.001Z,213.87
2023-02-14T12:30:08.566Z,206.97
2023-02-14T12:40:22.025Z,211.40
2023-02-14T12:50:39.917Z,205.93
2023-02-14T13:00:55.906Z,208.47
2023-02-14T13:11:12.232Z,203.07
2023-02-14T13:21:19.834Z,208.83
2023-02-14T13:31:25.740Z,213.53
2023-02-14T13:41:30.473Z,205.00
2023-02-14T13:51:50.842Z,209.97
2023-02-14T14:01:54.859Z,203.70
2023-02-14T14:12:02.374Z,211.43
2023-02-14T14:22:10.376Z,207.63
2023-02-14T14:32:22.699Z,205.20
2023-02-14T14:42:30.694Z,204.77
2023-02-14T14:52:38.624Z,201.20
2023-02-14T15:02:42.373Z,210.63
2023-02-14T15:13:04.845Z,204.43
2023-02-14T15:23:09.145Z,207.03
2023-02-14T15:33:14.459Z,206.00
2023-02-14T15:43:30.944Z,208.33
2023-02-14T15:53:42.666Z,200.90
2023-02-14T16:03:57.224Z,211.23
2023-02-14T16:14:30.404Z,211.80
2023-02-14T16:24:36.054Z,211.63
2023-02-14T16:34:41.683Z,212.10
2023-02-14T16:44:45.738Z,230.50
2023-02-14T16:54:50.920Z,219.87
2023-02-14T17:04:54.710Z,220.70
2023-02-14T17:15:06.073Z,229.10
2023-02-14T17:25:11.272Z,231.93
2023-02-14T17:35:16.631Z,238.80
2023-02-14T17:45:20.537Z,225.43
2023-02-14T17:55:25.819Z,225.20
2023-02-14T18:05:29.489Z,234.07
2023-02-14T18:15:35.160Z,225.60
2023-02-14T18:25:38.828Z,224.83
2023-02-14T18:35:43.804Z,225.13
2023-02-14T18:45:47.641Z,221.50
2023-02-14T18:55:52.948Z,225.40
2023-02-14T19:06:00.405Z,229.30
2023-02-14T19:16:12.579Z,221.17
2023-02-14T19:26:20.590Z,219.30
2023-02-14T19:36:25.965Z,221.43
2023-02-14T19:46:30.872Z,219.80
2023-02-14T19:56:38.655Z,224.70
2023-02-14T20:06:43.683Z,216.20
2023-02-14T20:16:50.411Z,223.90
2023-02-14T20:26:54.845Z,220.37
2023-02-14T20:37:00.482Z,224.97
2023-02-14T20:47:04.247Z,231.97
2023-02-14T20:57:09.449Z,237.33
2023-02-14T21:07:13.116Z,227.80
2023-02-14T21:17:18.677Z,237.17
2023-02-14T21:27:22.489Z,240.20
2023-02-14T21:37:28.060Z,266.17
2023-02-14T21:47:31.921Z,265.13
2023-02-14T21:57:37.121Z,265.93
2023-02-14T22:07:40.707Z,275.77
2023-02-14T22:17:45.901Z,282.40
2023-02-14T22:27:49.623Z,275.60
2023-02-14T22:37:54.728Z,283.03
2023-02-14T22:47:58.392Z,278.30
2023-02-14T22:58:04.616Z,282.23
2023-02-14T23:08:08.236Z,297.50
2023-02-14T23:18:32.064Z,293.83
2023-02-14T23:28:36.014Z,282.60
2023-02-14T23:38:41.136Z,274.07
2023-02-14T23:48:45.256Z,274.30
2023-02-14T23:58:50.429Z,223.27
